Waterford, VT

6:06 PM EDT on August 03, 2015 (GMT -0400)
Split Rock Farm | | Change Station
CLOSE
Current Station
Personal Weather Station
Location: Waterford, VT
Elevation: 863 ft
Nearby Weather Stations
Active Advisory: Severe Thunderstorm Watch Active Notice: Local Storm Report

Elev 863 ft 44.35 °N, 71.95 °W | Updated 6 minutes ago

Mostly Cloudy
Mostly Cloudy
78.2 °F
Feels Like 80 °F
N
1.0
Wind Variable Wind from SSE
Gusts 6.0 mph

Today
High -- | Low -- °F
--% Chance of Precip.
Yesterday
High -- | Low -- °F
Precip. -- in
5:36 AM 8:10 PM
Waning Gibbous, 83% visible
Pressure 29.73 in
Visibility 10.0 miles
Clouds Clear
Heat Index 80 °F
Dew Point 67 °F
Humidity 69%
Rainfall 0.00 in
Snow Depth Not available.
UV 2 out of 12
Pollen 5.60 out of 12
Air Quality Not available.
Flu Activity Not available.
METAR KCDA 032155Z AUTO 00000KT 10SM CLR 24/16 A2973 RMK AO2 T02410162

More Conditions Fewer Conditions

Pressure 29.73 in
Visibility 10.0 miles
Clouds Clear
Heat Index 80 °F
Dew Point 67 °F
Humidity 69%
Rainfall 0.00 in
Snow Depth Not available.
UV 2 out of 12
Pollen 5.60 out of 12
Air Quality Not available.
Flu Activity Not available.
METAR KCDA 032155Z AUTO 00000KT 10SM CLR 24/16 A2973 RMK AO2 T02410162

More Conditions Fewer Conditions

10-Day Weather Forecast

×

Almanac

Astronomy

Aug. 03, 2015 Rise Set
Actual Time
Civil Twilight
Nautical Twilight
Astronomical Twilight
Moon
Length of Visible Light
Length of Day
Tomorrow will be .
, % of the Moon is Illuminated

Today's Extremes

State Highs State Lows

Community

WunderPhotos

Upload Photos

1,843,781 photos uploaded!

WunderBlogs® & News

Nearby

Air Quality

  Air Quality AQ Index Pollutant
Not available.

Snow Depth

Station Depth Elevation

Earthquake Activity

City Distance Mag. Time & Date
Minimum magnitude displayed is 2.5.

Coastal Water Temperatures

Place Temperature

Stations

Nearby Weather Stations

Station Location Temp. Windchill Dew Point Humidity Wind Precip. Elev Updated Type
                   
Severe Thunderstorm Watch
Statement as of 6:03 PM EDT on August 03, 2015

Severe Thunderstorm Watch 466 remains in effect until 900 PM EDT

VT
. Vermont counties included are

Addison Caledonia Chittenden
Essex Franklin Grand Isle
LaMoille Orange Orleans
Rutland Washington Windsor